YABA

Albany Airport (Australia)

Airport
ICAO code
YABA
IATA Code
ALH
Summary
ICAO Region
APAC
ICAO Territory
Location

Drome, Western Australia

Serving
Albany
Elevation
233 ft
Coordinates
34° 56' 36" S , 117° 48' 32" E
Metar
Observation
YABA 170130Z AUTO 26011KT 4000 // SCT018 BKN057 OVC068 10/08 Q1007
Station
Albany Aerodrome
Date/Time
2022-08-17 01:30:00
Wind direction
260°
Wind speed
11 kts
Lowest cloud amount
scattered clouds
Temperature
10°C
Dew point
8°C
Humidity
87%
QNH
1007 hPa
Weather condition
n/a

Airport map

Aerial View

SKYbrary Partners:

Safety knowledge contributed by: